Terminal Aerodrome Forecast
Issued by NWS

Home | Current Version | Previous Version | Text Only | Print | Product List | Glossary On
Versions: 1 2 3 4 5 6 7 8 9 10 11 12 13
000
FTUS41 KLWX 042340
TAFMTN
TAF
KMTN 042340Z 0500/0524 09009G17KT P6SM BKN080
     FM050300 06010KT P6SM SCT020 BKN030
     FM050500 08010KT P6SM OVC015
     FM051300 07008KT P6SM BKN025
     FM051600 09007KT P6SM SCT040
      AMD NOT SKED 0502/0512=

USA.gov is the U.S. government's official web portal to all federal, state and local government web resources and services.